首页
METAR-TAF:

METAR-TAF

机场 :

重庆江北国际机场

重庆, 中华人民共和国

纬度: 29-31N, 经度: 106-29E, 海拔: 351米

当前天气观测

该预报发布于26分钟前的04:00 UTC
风速8节,风向西南
温度 9°C
湿度 81%
气压 1027 hPa
能见度10公里或以上
散云层高于1000英尺
散云层高于2000英尺
阴天层高于5000英尺

METAR: ZUCK 180400Z 23004MPS 9999 SCT010 SCT020 OVC050 09/06 Q1027 NOSIG

时间: 12:26 (04:26 UTC)

预报

该预报发布于9小时和18分钟前的19:08 UTC
预报有效从18日的 00点(UTC)到 18日的 24点(UTC)
风速6节,风向西转西南
能見度: 5000
散云层高于1200英尺
阴天层高于4000英尺
轻雾

TAF: ZUCK 171908Z 1800/1824 24003MPS 5000 BR SCT012 OVC040 TX10/1808Z TN08/1822Z

超过4000个机场的气象观测和天气预报(METAR&TAF报告)。

可查询的气象台以黄色和红色小点在地图上表示。

将鼠标移到小点上方,可查看气象台名称。

然后点击查看天气观测和预报。

如需切换地图:点击带黑十字的绿色按钮放大地图;点击带横线的绿色按钮缩小地图;或者点击绿色箭头查看邻近地区的地图。


METAR-TAF: